sensor_id;sensor_type;location;lat;lon;timestamp;temperature;humidity
10143;DHT22;5112;54.088;13.446;2022-12-01T00:07:59;2.40;99.90
10143;DHT22;5112;54.088;13.446;2022-12-01T00:18:02;2.40;99.90
10143;DHT22;5112;54.088;13.446;2022-12-01T00:28:06;2.20;99.90
10143;DHT22;5112;54.088;13.446;2022-12-01T00:38:08;2.10;99.90
10143;DHT22;5112;54.088;13.446;2022-12-01T00:48:11;2.10;99.90
10143;DHT22;5112;54.088;13.446;2022-12-01T00:58:12;2.30;99.90
10143;DHT22;5112;54.088;13.446;2022-12-01T01:08:15;2.10;99.90
10143;DHT22;5112;54.088;13.446;2022-12-01T01:18:17;2.10;99.90
10143;DHT22;5112;54.088;13.446;2022-12-01T01:28:20;2.10;99.90
10143;DHT22;5112;54.088;13.446;2022-12-01T01:38:22;2.10;99.90
10143;DHT22;5112;54.088;13.446;2022-12-01T01:48:25;2.10;99.90
10143;DHT22;5112;54.088;13.446;2022-12-01T01:58:26;2.10;99.90
10143;DHT22;5112;54.088;13.446;2022-12-01T02:08:32;2.00;99.90
10143;DHT22;5112;54.088;13.446;2022-12-01T02:18:39;2.10;99.90
10143;DHT22;5112;54.088;13.446;2022-12-01T02:29:07;2.00;99.90
10143;DHT22;5112;54.088;13.446;2022-12-01T02:39:19;2.00;99.90
10143;DHT22;5112;54.088;13.446;2022-12-01T02:49:25;2.10;99.90
10143;DHT22;5112;54.088;13.446;2022-12-01T02:59:29;2.20;99.90
10143;DHT22;5112;54.088;13.446;2022-12-01T03:09:40;2.00;99.90
10143;DHT22;5112;54.088;13.446;2022-12-01T03:19:51;2.00;99.90
10143;DHT22;5112;54.088;13.446;2022-12-01T03:29:55;2.00;99.90
10143;DHT22;5112;54.088;13.446;2022-12-01T03:40:02;2.00;99.90
10143;DHT22;5112;54.088;13.446;2022-12-01T03:50:07;2.00;99.90
10143;DHT22;5112;54.088;13.446;2022-12-01T04:00:15;2.10;99.90
10143;DHT22;5112;54.088;13.446;2022-12-01T04:10:17;2.00;99.90
10143;DHT22;5112;54.088;13.446;2022-12-01T04:20:20;2.00;99.90
10143;DHT22;5112;54.088;13.446;2022-12-01T04:30:22;2.10;99.90
10143;DHT22;5112;54.088;13.446;2022-12-01T04:40:25;2.10;99.90
10143;DHT22;5112;54.088;13.446;2022-12-01T04:50:27;2.00;99.90
10143;DHT22;5112;54.088;13.446;2022-12-01T05:00:30;2.00;99.90
10143;DHT22;5112;54.088;13.446;2022-12-01T05:10:34;2.00;99.90
10143;DHT22;5112;54.088;13.446;2022-12-01T05:20:37;2.00;99.90
10143;DHT22;5112;54.088;13.446;2022-12-01T05:30:56;2.00;99.90
10143;DHT22;5112;54.088;13.446;2022-12-01T05:40:59;2.10;99.90
10143;DHT22;5112;54.088;13.446;2022-12-01T05:51:07;2.00;99.90
10143;DHT22;5112;54.088;13.446;2022-12-01T06:01:10;2.30;99.90
10143;DHT22;5112;54.088;13.446;2022-12-01T06:11:12;2.00;99.90
10143;DHT22;5112;54.088;13.446;2022-12-01T06:21:15;2.10;99.90
10143;DHT22;5112;54.088;13.446;2022-12-01T06:31:16;2.10;99.90
10143;DHT22;5112;54.088;13.446;2022-12-01T06:41:19;2.10;99.90
10143;DHT22;5112;54.088;13.446;2022-12-01T06:51:21;2.10;99.90
10143;DHT22;5112;54.088;13.446;2022-12-01T07:01:24;2.20;99.90
10143;DHT22;5112;54.088;13.446;2022-12-01T07:11:27;2.10;99.90
10143;DHT22;5112;54.088;13.446;2022-12-01T07:21:32;2.10;99.90
10143;DHT22;5112;54.088;13.446;2022-12-01T07:31:34;2.10;99.90
10143;DHT22;5112;54.088;13.446;2022-12-01T07:41:38;2.10;99.90
10143;DHT22;5112;54.088;13.446;2022-12-01T07:51:40;2.10;99.90
10143;DHT22;5112;54.088;13.446;2022-12-01T08:01:43;2.10;99.90
10143;DHT22;5112;54.088;13.446;2022-12-01T08:11:45;2.10;99.90
10143;DHT22;5112;54.088;13.446;2022-12-01T08:21:48;2.10;99.90
10143;DHT22;5112;54.088;13.446;2022-12-01T08:31:50;2.20;99.90
10143;DHT22;5112;54.088;13.446;2022-12-01T08:41:53;2.20;99.90
10143;DHT22;5112;54.088;13.446;2022-12-01T08:51:54;2.20;99.90
10143;DHT22;5112;54.088;13.446;2022-12-01T09:01:57;2.30;99.90
10143;DHT22;5112;54.088;13.446;2022-12-01T09:11:59;2.30;99.90
10143;DHT22;5112;54.088;13.446;2022-12-01T09:22:02;2.40;99.90
10143;DHT22;5112;54.088;13.446;2022-12-01T09:32:04;2.30;99.90
10143;DHT22;5112;54.088;13.446;2022-12-01T09:42:11;2.40;99.90
10143;DHT22;5112;54.088;13.446;2022-12-01T09:52:15;2.30;99.90
10143;DHT22;5112;54.088;13.446;2022-12-01T10:02:26;2.50;99.90
10143;DHT22;5112;54.088;13.446;2022-12-01T10:12:31;2.50;99.90
10143;DHT22;5112;54.088;13.446;2022-12-01T10:22:52;2.50;99.90
10143;DHT22;5112;54.088;13.446;2022-12-01T10:33:03;2.50;99.90
10143;DHT22;5112;54.088;13.446;2022-12-01T10:43:10;2.60;99.90
10143;DHT22;5112;54.088;13.446;2022-12-01T10:53:28;2.60;99.90
10143;DHT22;5112;54.088;13.446;2022-12-01T11:03:33;2.70;99.90
10143;DHT22;5112;54.088;13.446;2022-12-01T11:13:35;2.60;99.90
10143;DHT22;5112;54.088;13.446;2022-12-01T11:23:44;2.60;99.90
10143;DHT22;5112;54.088;13.446;2022-12-01T11:33:49;2.70;99.90
10143;DHT22;5112;54.088;13.446;2022-12-01T11:43:52;2.60;99.90
10143;DHT22;5112;54.088;13.446;2022-12-01T11:54:04;2.70;99.90
10143;DHT22;5112;54.088;13.446;2022-12-01T12:04:19;2.60;99.90
10143;DHT22;5112;54.088;13.446;2022-12-01T12:14:35;2.60;99.90
10143;DHT22;5112;54.088;13.446;2022-12-01T12:24:55;2.60;99.90
10143;DHT22;5112;54.088;13.446;2022-12-01T12:35:04;2.60;99.90
10143;DHT22;5112;54.088;13.446;2022-12-01T12:45:22;2.70;99.90
10143;DHT22;5112;54.088;13.446;2022-12-01T12:55:29;2.70;99.90
10143;DHT22;5112;54.088;13.446;2022-12-01T13:05:37;2.70;99.90
10143;DHT22;5112;54.088;13.446;2022-12-01T13:15:40;2.80;99.90
10143;DHT22;5112;54.088;13.446;2022-12-01T13:25:47;2.70;99.90
10143;DHT22;5112;54.088;13.446;2022-12-01T13:35:52;2.70;99.90
10143;DHT22;5112;54.088;13.446;2022-12-01T13:46:01;2.70;99.90
10143;DHT22;5112;54.088;13.446;2022-12-01T14:06:27;2.60;99.90
10143;DHT22;5112;54.088;13.446;2022-12-01T14:16:45;2.60;99.90
10143;DHT22;5112;54.088;13.446;2022-12-01T14:26:50;2.60;99.90
10143;DHT22;5112;54.088;13.446;2022-12-01T14:36:54;2.60;99.90
10143;DHT22;5112;54.088;13.446;2022-12-01T14:47:05;2.60;99.90
10143;DHT22;5112;54.088;13.446;2022-12-01T14:57:09;2.60;99.90
10143;DHT22;5112;54.088;13.446;2022-12-01T15:07:19;2.60;99.90
10143;DHT22;5112;54.088;13.446;2022-12-01T15:17:27;2.80;99.90
10143;DHT22;5112;54.088;13.446;2022-12-01T15:27:32;2.60;99.90
10143;DHT22;5112;54.088;13.446;2022-12-01T15:37:39;2.50;99.90
10143;DHT22;5112;54.088;13.446;2022-12-01T15:47:45;2.50;99.90
10143;DHT22;5112;54.088;13.446;2022-12-01T15:57:47;2.50;99.90
10143;DHT22;5112;54.088;13.446;2022-12-01T16:07:50;2.40;99.90
10143;DHT22;5112;54.088;13.446;2022-12-01T16:17:52;2.40;99.90
10143;DHT22;5112;54.088;13.446;2022-12-01T16:27:56;2.50;99.90
10143;DHT22;5112;54.088;13.446;2022-12-01T16:37:59;2.50;99.90
10143;DHT22;5112;54.088;13.446;2022-12-01T16:48:02;2.40;99.90
10143;DHT22;5112;54.088;13.446;2022-12-01T16:58:04;2.40;99.90
10143;DHT22;5112;54.088;13.446;2022-12-01T17:08:07;2.50;99.90
10143;DHT22;5112;54.088;13.446;2022-12-01T17:18:09;2.50;99.90
10143;DHT22;5112;54.088;13.446;2022-12-01T17:28:12;2.50;99.90
10143;DHT22;5112;54.088;13.446;2022-12-01T17:38:14;2.50;99.90
10143;DHT22;5112;54.088;13.446;2022-12-01T17:48:17;2.50;99.90
10143;DHT22;5112;54.088;13.446;2022-12-01T17:58:18;2.50;99.90
10143;DHT22;5112;54.088;13.446;2022-12-01T18:08:22;2.50;99.90
10143;DHT22;5112;54.088;13.446;2022-12-01T18:18:24;2.50;99.90
10143;DHT22;5112;54.088;13.446;2022-12-01T18:28:27;2.50;99.90
10143;DHT22;5112;54.088;13.446;2022-12-01T18:38:29;2.60;99.90
10143;DHT22;5112;54.088;13.446;2022-12-01T18:48:33;2.60;99.90
10143;DHT22;5112;54.088;13.446;2022-12-01T18:58:35;2.60;99.90
10143;DHT22;5112;54.088;13.446;2022-12-01T19:08:38;2.60;99.90
10143;DHT22;5112;54.088;13.446;2022-12-01T19:18:40;2.60;99.90
10143;DHT22;5112;54.088;13.446;2022-12-01T19:28:44;2.60;99.90
10143;DHT22;5112;54.088;13.446;2022-12-01T19:38:46;2.60;99.90
10143;DHT22;5112;54.088;13.446;2022-12-01T19:48:54;2.70;99.90
10143;DHT22;5112;54.088;13.446;2022-12-01T19:58:56;2.60;99.90
10143;DHT22;5112;54.088;13.446;2022-12-01T20:09:00;2.70;99.90
10143;DHT22;5112;54.088;13.446;2022-12-01T20:19:03;2.60;99.90
10143;DHT22;5112;54.088;13.446;2022-12-01T20:29:09;2.60;99.90
10143;DHT22;5112;54.088;13.446;2022-12-01T20:39:12;2.60;99.90
10143;DHT22;5112;54.088;13.446;2022-12-01T20:49:17;2.60;99.90
10143;DHT22;5112;54.088;13.446;2022-12-01T20:59:19;2.60;99.90
10143;DHT22;5112;54.088;13.446;2022-12-01T21:09:22;2.60;99.90
10143;DHT22;5112;54.088;13.446;2022-12-01T21:19:27;2.60;99.90
10143;DHT22;5112;54.088;13.446;2022-12-01T21:29:38;2.60;99.90
10143;DHT22;5112;54.088;13.446;2022-12-01T21:39:40;2.60;99.90
10143;DHT22;5112;54.088;13.446;2022-12-01T21:49:43;2.60;99.90
10143;DHT22;5112;54.088;13.446;2022-12-01T21:59:45;2.60;99.90
10143;DHT22;5112;54.088;13.446;2022-12-01T22:09:49;2.60;99.90
10143;DHT22;5112;54.088;13.446;2022-12-01T22:19:54;2.60;99.90
10143;DHT22;5112;54.088;13.446;2022-12-01T22:30:00;2.60;99.90
10143;DHT22;5112;54.088;13.446;2022-12-01T22:40:27;2.50;99.90
10143;DHT22;5112;54.088;13.446;2022-12-01T22:50:32;2.50;99.90
10143;DHT22;5112;54.088;13.446;2022-12-01T23:00:33;2.60;99.90
10143;DHT22;5112;54.088;13.446;2022-12-01T23:10:37;2.50;99.90
10143;DHT22;5112;54.088;13.446;2022-12-01T23:20:41;2.60;99.90
10143;DHT22;5112;54.088;13.446;2022-12-01T23:30:46;2.50;99.90
10143;DHT22;5112;54.088;13.446;2022-12-01T23:40:51;2.50;99.90
10143;DHT22;5112;54.088;13.446;2022-12-01T23:50:54;2.60;99.90
